createdAt,value
2018-07-06T00:02:15.042Z,1010.54
2018-07-06T00:07:11.171Z,1010.56
2018-07-06T00:12:06.935Z,1010.54
2018-07-06T00:17:02.858Z,1010.65
2018-07-06T00:21:59.729Z,1010.67
2018-07-06T00:26:55.439Z,1010.62
2018-07-06T00:31:52.205Z,1010.62
2018-07-06T00:36:47.842Z,1010.67
2018-07-06T00:41:44.818Z,1010.64
2018-07-06T00:46:41.095Z,1010.60
2018-07-06T00:51:37.717Z,1010.68
2018-07-06T00:56:34.338Z,1010.52
2018-07-06T01:01:30.856Z,1010.68
2018-07-06T01:06:27.721Z,1010.75
2018-07-06T01:11:23.496Z,1010.81
2018-07-06T01:16:19.468Z,1010.87
2018-07-06T01:21:15.671Z,1010.95
2018-07-06T01:26:12.946Z,1010.90
2018-07-06T01:31:09.957Z,1010.91
2018-07-06T01:36:05.580Z,1010.99
2018-07-06T01:41:01.686Z,1011.03
2018-07-06T01:45:58.675Z,1011.12
2018-07-06T01:50:55.038Z,1011.04
2018-07-06T01:55:50.192Z,1010.96
2018-07-06T02:00:46.223Z,1011.09
2018-07-06T02:05:42.208Z,1011.03
2018-07-06T02:10:38.394Z,1010.97
2018-07-06T02:15:35.546Z,1010.95
2018-07-06T02:20:31.049Z,1010.88
2018-07-06T02:25:28.300Z,1010.95
2018-07-06T02:30:23.672Z,1010.77
2018-07-06T02:35:19.957Z,1010.85
2018-07-06T02:40:16.937Z,1010.80
2018-07-06T02:45:12.300Z,1010.88
2018-07-06T02:50:08.209Z,1010.86
2018-07-06T02:55:05.113Z,1010.90
2018-07-06T03:00:00.858Z,1010.92
2018-07-06T03:04:56.958Z,1010.94
2018-07-06T03:09:53.502Z,1011.02
2018-07-06T03:14:49.551Z,1011.01
2018-07-06T03:19:45.598Z,1011.08
2018-07-06T03:24:41.296Z,1011.10
2018-07-06T03:29:38.029Z,1011.12
2018-07-06T03:34:33.467Z,1011.06
2018-07-06T03:39:29.289Z,1011.22
2018-07-06T03:44:25.052Z,1011.30
2018-07-06T03:49:21.177Z,1011.37
2018-07-06T03:54:16.973Z,1011.32
2018-07-06T03:59:12.956Z,1011.45
2018-07-06T04:04:09.741Z,1011.49
2018-07-06T04:09:05.089Z,1011.49
2018-07-06T04:14:01.157Z,1011.50
2018-07-06T04:18:57.937Z,1011.56
2018-07-06T04:23:53.829Z,1011.72
2018-07-06T04:28:49.801Z,1011.56
2018-07-06T04:33:45.605Z,1011.58
2018-07-06T04:38:41.446Z,1011.72
2018-07-06T04:43:37.386Z,1011.69
2018-07-06T04:48:33.977Z,1011.76
2018-07-06T04:53:29.641Z,1011.83
2018-07-06T04:58:25.790Z,1011.85
2018-07-06T05:03:21.835Z,1011.84
2018-07-06T05:08:17.760Z,1011.96
2018-07-06T05:13:13.523Z,1011.99
2018-07-06T05:18:09.311Z,1011.97
2018-07-06T05:23:05.278Z,1011.97
2018-07-06T05:28:01.342Z,1012.02
2018-07-06T05:32:57.278Z,1011.99
2018-07-06T05:37:53.210Z,1012.07
2018-07-06T05:42:49.047Z,1012.03
2018-07-06T05:47:44.923Z,1012.12
2018-07-06T05:52:40.628Z,1012.28
2018-07-06T05:57:37.562Z,1012.16
2018-07-06T06:02:33.054Z,1012.20
2018-07-06T06:07:29.260Z,1012.26
2018-07-06T06:12:25.118Z,1012.19
2018-07-06T06:17:22.228Z,1012.25
2018-07-06T06:22:18.069Z,1012.23
2018-07-06T06:27:13.906Z,1012.30
2018-07-06T06:32:10.101Z,1012.34
2018-07-06T06:37:06.087Z,1012.45
2018-07-06T06:42:02.130Z,1012.55
2018-07-06T06:46:58.307Z,1012.54
2018-07-06T06:51:55.208Z,1012.58
2018-07-06T06:56:52.024Z,1012.78
2018-07-06T07:01:48.657Z,1012.70
2018-07-06T07:06:44.335Z,1012.73
2018-07-06T07:11:40.121Z,1012.79
2018-07-06T07:16:36.921Z,1012.86
2018-07-06T07:21:33.420Z,1012.89
2018-07-06T07:26:29.030Z,1013.02
2018-07-06T07:31:24.632Z,1012.95
2018-07-06T07:36:20.437Z,1012.96
2018-07-06T07:41:16.778Z,1013.00
2018-07-06T07:46:13.411Z,1012.91
2018-07-06T07:51:09.323Z,1012.91
2018-07-06T07:56:05.519Z,1012.94
2018-07-06T08:01:01.856Z,1013.02
2018-07-06T08:05:58.585Z,1013.06
2018-07-06T08:10:55.450Z,1013.01
2018-07-06T08:15:51.556Z,1013.05
2018-07-06T08:20:52.061Z,1013.15
2018-07-06T08:25:50.616Z,1012.96
2018-07-06T08:30:48.152Z,1013.05
2018-07-06T08:35:45.304Z,1013.18
2018-07-06T08:40:40.762Z,1013.18
2018-07-06T08:45:38.059Z,1012.98
2018-07-06T08:50:37.815Z,1013.17
2018-07-06T08:55:35.468Z,1013.10
2018-07-06T09:00:32.141Z,1012.97
2018-07-06T09:05:25.832Z,1013.15
2018-07-06T09:10:20.831Z,1013.28
2018-07-06T09:15:17.786Z,1013.33
2018-07-06T09:20:13.907Z,1013.19
2018-07-06T09:25:13.179Z,1013.41
2018-07-06T09:30:11.316Z,1013.36
2018-07-06T09:35:10.076Z,1013.36
2018-07-06T09:40:06.750Z,1013.42
2018-07-06T09:45:01.988Z,1013.45
2018-07-06T09:49:59.498Z,1013.45
2018-07-06T09:54:56.257Z,1013.51
2018-07-06T09:59:52.425Z,1013.43
2018-07-06T10:04:48.696Z,1013.43
2018-07-06T10:09:44.867Z,1013.14
2018-07-06T10:14:41.024Z,1013.48
2018-07-06T10:19:37.714Z,1013.28
2018-07-06T10:24:33.082Z,1013.28
2018-07-06T10:29:28.707Z,1013.36
2018-07-06T10:34:25.196Z,1013.38
2018-07-06T10:39:21.074Z,1013.45
2018-07-06T10:44:18.118Z,1013.29
2018-07-06T10:49:14.856Z,1013.28
2018-07-06T10:54:11.530Z,1013.33
2018-07-06T10:59:08.095Z,1013.34
2018-07-06T11:04:05.500Z,1013.41
2018-07-06T11:09:03.005Z,1013.25
2018-07-06T11:13:59.219Z,1013.32
2018-07-06T11:18:55.932Z,1013.27
2018-07-06T11:23:53.583Z,1013.19
2018-07-06T11:28:49.916Z,1013.35
2018-07-06T11:33:46.198Z,1013.17
2018-07-06T11:38:42.195Z,1013.26
2018-07-06T11:43:38.796Z,1013.28
2018-07-06T11:48:35.309Z,1013.36
2018-07-06T11:53:31.658Z,1013.30
2018-07-06T11:58:28.715Z,1013.40
2018-07-06T12:03:24.685Z,1013.31
2018-07-06T12:08:20.651Z,1013.23
2018-07-06T12:13:16.932Z,1013.31
2018-07-06T12:18:12.770Z,1013.20
2018-07-06T12:23:09.985Z,1013.28
2018-07-06T12:28:05.226Z,1013.21
2018-07-06T12:33:00.251Z,1013.16
2018-07-06T12:37:53.836Z,1013.10
2018-07-06T12:42:51.707Z,1013.20
2018-07-06T12:47:50.083Z,1013.12
2018-07-06T12:52:47.022Z,1013.12
2018-07-06T12:57:42.132Z,1013.09
2018-07-06T13:02:40.094Z,1013.21
2018-07-06T13:07:37.747Z,1013.11
2018-07-06T13:12:33.498Z,1013.17
2018-07-06T13:17:28.944Z,1013.21
2018-07-06T13:22:26.371Z,1013.11
2018-07-06T13:27:21.698Z,1013.10
2018-07-06T13:32:16.886Z,1013.08
2018-07-06T13:37:14.013Z,1013.04
2018-07-06T13:42:10.566Z,1013.09
2018-07-06T13:47:07.157Z,1013.13
2018-07-06T13:52:03.259Z,1013.18
2018-07-06T13:56:58.403Z,1013.15
2018-07-06T14:01:54.134Z,1013.20
2018-07-06T14:06:49.613Z,1013.12
2018-07-06T14:11:45.371Z,1013.13
2018-07-06T14:16:40.799Z,1013.19
2018-07-06T14:21:37.472Z,1013.29
2018-07-06T14:26:33.554Z,1013.27
2018-07-06T14:31:28.633Z,1013.18
2018-07-06T14:36:24.298Z,1013.32
2018-07-06T14:41:20.237Z,1013.08
2018-07-06T14:46:16.048Z,1013.26
2018-07-06T14:51:12.103Z,1013.34
2018-07-06T14:56:08.578Z,1013.29
2018-07-06T15:01:05.504Z,1013.24
2018-07-06T15:06:02.249Z,1013.40
2018-07-06T15:10:57.937Z,1013.46
2018-07-06T15:15:53.773Z,1013.50
2018-07-06T15:20:50.742Z,1013.44
2018-07-06T15:25:46.439Z,1013.47
2018-07-06T15:30:42.467Z,1013.59
2018-07-06T15:35:38.465Z,1013.53
2018-07-06T15:40:34.420Z,1013.61
2018-07-06T15:45:30.547Z,1013.55
2018-07-06T15:50:27.710Z,1013.66
2018-07-06T15:55:23.509Z,1013.69
2018-07-06T16:00:19.415Z,1013.62
2018-07-06T16:05:15.271Z,1013.68
2018-07-06T16:10:11.300Z,1013.61
2018-07-06T16:15:07.875Z,1013.63
2018-07-06T16:20:03.619Z,1013.71
2018-07-06T16:24:59.225Z,1013.65
2018-07-06T16:29:54.856Z,1013.70
2018-07-06T16:34:51.775Z,1013.70
2018-07-06T16:39:47.409Z,1013.75
2018-07-06T16:44:43.303Z,1013.65
2018-07-06T16:49:40.250Z,1013.71
2018-07-06T16:54:37.161Z,1013.86
2018-07-06T16:59:34.057Z,1013.76
2018-07-06T17:04:30.850Z,1013.62
2018-07-06T17:09:26.611Z,1013.70
2018-07-06T17:14:22.429Z,1013.73
2018-07-06T17:19:19.442Z,1013.74
2018-07-06T17:24:15.419Z,1013.76
2018-07-06T17:29:11.234Z,1013.78
2018-07-06T17:34:08.158Z,1013.81
2018-07-06T17:39:03.731Z,1013.86
2018-07-06T17:44:00.487Z,1013.87
2018-07-06T17:48:56.196Z,1013.80
2018-07-06T17:53:53.158Z,1013.78
2018-07-06T17:58:48.663Z,1013.90
2018-07-06T18:03:44.273Z,1013.90
2018-07-06T18:08:41.215Z,1013.89
2018-07-06T18:13:36.759Z,1013.97
2018-07-06T18:18:32.687Z,1013.94
2018-07-06T18:23:29.448Z,1013.85
2018-07-06T18:28:25.402Z,1013.97
2018-07-06T18:33:21.045Z,1014.00
2018-07-06T18:38:17.013Z,1014.00
2018-07-06T18:43:13.871Z,1013.98
2018-07-06T18:48:09.457Z,1014.00
2018-07-06T18:53:05.224Z,1014.02
2018-07-06T18:58:02.162Z,1014.10
2018-07-06T19:02:59.001Z,1014.14
2018-07-06T19:07:54.352Z,1014.21
2018-07-06T19:12:50.267Z,1014.23
2018-07-06T19:17:46.353Z,1014.27
2018-07-06T19:22:42.383Z,1014.34
2018-07-06T19:27:38.162Z,1014.36
2018-07-06T19:32:33.921Z,1014.45
2018-07-06T19:37:29.717Z,1014.58
2018-07-06T19:42:26.083Z,1014.61
2018-07-06T19:47:22.119Z,1014.67
2018-07-06T19:52:17.792Z,1014.84
2018-07-06T19:57:13.430Z,1014.84
2018-07-06T20:02:09.623Z,1014.91
2018-07-06T20:07:05.519Z,1014.98
2018-07-06T20:12:01.099Z,1015.00
2018-07-06T20:16:57.088Z,1015.12
2018-07-06T20:21:53.883Z,1015.10
2018-07-06T20:26:49.769Z,1015.00
2018-07-06T20:31:45.971Z,1015.12
2018-07-06T20:36:43.350Z,1015.27
2018-07-06T20:41:39.806Z,1015.27
2018-07-06T20:46:35.161Z,1015.33
2018-07-06T20:51:31.041Z,1015.35
2018-07-06T20:56:28.441Z,1015.39
2018-07-06T21:01:25.273Z,1015.43
2018-07-06T21:06:21.673Z,1015.41
2018-07-06T21:11:17.696Z,1015.50
2018-07-06T21:16:14.114Z,1015.55
2018-07-06T21:21:10.407Z,1015.59
2018-07-06T21:26:06.201Z,1015.71
2018-07-06T21:31:02.246Z,1015.63
2018-07-06T21:35:58.092Z,1015.73
2018-07-06T21:40:53.824Z,1015.76
2018-07-06T21:45:49.809Z,1015.81
2018-07-06T21:50:45.739Z,1015.80
2018-07-06T21:55:41.429Z,1015.77
2018-07-06T22:00:37.709Z,1015.90
2018-07-06T22:05:34.199Z,1015.74
2018-07-06T22:10:29.871Z,1015.73
2018-07-06T22:15:25.711Z,1015.81
2018-07-06T22:20:21.810Z,1015.72
2018-07-06T22:25:17.529Z,1015.79
2018-07-06T22:30:13.159Z,1015.77
2018-07-06T22:35:09.076Z,1015.86
2018-07-06T22:40:04.834Z,1015.82
2018-07-06T22:45:00.626Z,1015.93
2018-07-06T22:49:56.253Z,1015.80
2018-07-06T22:54:52.596Z,1015.85
2018-07-06T22:59:48.332Z,1015.85
2018-07-06T23:04:44.229Z,1015.83
2018-07-06T23:09:39.908Z,1015.87
2018-07-06T23:14:35.994Z,1015.97
2018-07-06T23:19:32.805Z,1015.91
2018-07-06T23:24:28.534Z,1015.84
2018-07-06T23:29:24.578Z,1015.91
2018-07-06T23:34:20.313Z,1015.96
2018-07-06T23:39:15.950Z,1015.97
2018-07-06T23:44:11.779Z,1016.01
2018-07-06T23:49:08.740Z,1016.07
2018-07-06T23:54:04.320Z,1015.96
2018-07-06T23:59:00.330Z,1015.92
